PWSweather.com
Personal Weather Stations
Station Observations
N6QIH
Larry & Sandy Wx Now Hawaii, Ewa Beach, HI 96706

Larry & Sandy Wx Now HawaiiEwa Beach, HI 96706

Lat: 21.327716, Lon: -158.028032

Elevation: 29

Station Type: Davis Pro 2 Solar

http://www.CoCoRAHS.org

High Low Average
Temperature 76.8°F24.9°C 65.5°F18.6°C 69.3°F20.7°C
Dew Point 70.4°F21.3°C 61.8°F16.6°C 64.4°F18.0°C
Winds 5.9 mph 9.5 kmh Calm Calm Calm ECalm E
Wind Gusts 7.0 mph11.3 kmh -- 1.0 mph1.6 kmh
Humidity 92% 75% 85%
Pressure 29.88 in1011.9 mb 29.80 in1009.1 mb -
Precipitation 0.20 in5.1 mm - -
Hour Temp Dew Point Humidity Winds Wind Gusts Pressure Precip Precip Rate Daily Precip Total
12:00 AM 68.9°F20.5°C 62.1°F16.7°C 79% Calm Calm -- 29.84 in1010.5 mb 0.00 in0.0 mm 0.00 in/hr0.0 mm/hr 0.00 in0.0 mm
12:10 AM 68.9°F20.5°C 62.1°F16.7°C 79% Calm Calm -- 29.84 in1010.5 mb 0.00 in0.0 mm 0.00 in/hr0.0 mm/hr 0.00 in0.0 mm
12:20 AM 69.1°F20.6°C 62.3°F16.8°C 79% Calm Calm -- 29.84 in1010.5 mb 0.00 in0.0 mm 0.00 in/hr0.0 mm/hr 0.00 in0.0 mm
12:30 AM 69.3°F20.7°C 62.5°F16.9°C 79% Calm Calm -- 29.83 in1010.2 mb 0.00 in0.0 mm 0.00 in/hr0.0 mm/hr 0.00 in0.0 mm
12:40 AM 69.3°F20.7°C 62.5°F16.9°C 79% Calm Calm -- 29.83 in1010.2 mb 0.00 in0.0 mm 0.00 in/hr0.0 mm/hr 0.00 in0.0 mm
12:50 AM 69.3°F20.7°C 62.5°F16.9°C 79% Calm Calm -- 29.83 in1010.2 mb 0.00 in0.0 mm 0.00 in/hr0.0 mm/hr 0.00 in0.0 mm
01:00 AM 69.4°F20.8°C 62.6°F17.0°C 79% Calm Calm -- 29.83 in1010.2 mb 0.00 in0.0 mm 0.00 in/hr0.0 mm/hr 0.00 in0.0 mm
01:10 AM 69.6°F20.9°C 63.2°F17.3°C 80% 0.1 mph N0.2 kmh N -- 29.83 in1010.2 mb 0.00 in0.0 mm 0.00 in/hr0.0 mm/hr 0.00 in0.0 mm
01:20 AM 69.8°F21.0°C 63.0°F17.2°C 79% Calm Calm -- 29.83 in1010.2 mb 0.00 in0.0 mm 0.00 in/hr0.0 mm/hr 0.00 in0.0 mm
01:30 AM 69.9°F21.1°C 63.1°F17.3°C 79% Calm Calm -- 29.83 in1010.2 mb 0.00 in0.0 mm 0.00 in/hr0.0 mm/hr 0.00 in0.0 mm
01:40 AM 70.1°F21.2°C 62.9°F17.2°C 78% Calm Calm -- 29.82 in1009.8 mb 0.00 in0.0 mm 0.00 in/hr0.0 mm/hr 0.00 in0.0 mm
01:50 AM 69.9°F21.1°C 63.1°F17.3°C 79% Calm Calm -- 29.82 in1009.8 mb 0.00 in0.0 mm 0.00 in/hr0.0 mm/hr 0.00 in0.0 mm
02:00 AM 69.9°F21.1°C 62.7°F17.1°C 78% 0.3 mph N0.5 kmh N 1.0 mph1.6 kmh 29.82 in1009.8 mb 0.00 in0.0 mm 0.00 in/hr0.0 mm/hr 0.00 in0.0 mm
02:10 AM 69.9°F21.1°C 62.7°F17.1°C 78% Calm Calm -- 29.82 in1009.8 mb 0.00 in0.0 mm 0.00 in/hr0.0 mm/hr 0.00 in0.0 mm
02:20 AM 69.9°F21.1°C 62.7°F17.1°C 78% 0.4 mph NE0.6 kmh NE 2.0 mph3.2 kmh 29.81 in1009.5 mb 0.00 in0.0 mm 0.00 in/hr0.0 mm/hr 0.00 in0.0 mm
02:30 AM 69.8°F21.0°C 63.0°F17.2°C 79% 0.1 mph NE0.2 kmh NE 1.0 mph1.6 kmh 29.81 in1009.5 mb 0.00 in0.0 mm 0.00 in/hr0.0 mm/hr 0.00 in0.0 mm
02:40 AM 69.6°F20.9°C 63.2°F17.3°C 80% Calm Calm -- 29.80 in1009.1 mb 0.00 in0.0 mm 0.00 in/hr0.0 mm/hr 0.00 in0.0 mm
02:50 AM 69.1°F20.6°C 62.7°F17.1°C 80% Calm Calm -- 29.80 in1009.1 mb 0.00 in0.0 mm 0.00 in/hr0.0 mm/hr 0.00 in0.0 mm
03:00 AM 68.8°F20.4°C 62.7°F17.1°C 81% Calm Calm -- 29.80 in1009.1 mb 0.00 in0.0 mm 0.00 in/hr0.0 mm/hr 0.00 in0.0 mm
03:10 AM 68.4°F20.2°C 62.3°F16.8°C 81% Calm Calm -- 29.80 in1009.1 mb 0.00 in0.0 mm 0.00 in/hr0.0 mm/hr 0.00 in0.0 mm
03:20 AM 68.1°F20.1°C 62.4°F16.9°C 82% Calm Calm -- 29.80 in1009.1 mb 0.00 in0.0 mm 0.00 in/hr0.0 mm/hr 0.00 in0.0 mm
03:30 AM 67.8°F19.9°C 62.1°F16.7°C 82% Calm Calm -- 29.80 in1009.1 mb 0.00 in0.0 mm 0.00 in/hr0.0 mm/hr 0.00 in0.0 mm
03:40 AM 67.6°F19.8°C 62.3°F16.8°C 83% Calm Calm -- 29.80 in1009.1 mb 0.00 in0.0 mm 0.00 in/hr0.0 mm/hr 0.00 in0.0 mm
03:50 AM 67.8°F19.9°C 62.4°F16.9°C 83% Calm Calm -- 29.80 in1009.1 mb 0.00 in0.0 mm 0.00 in/hr0.0 mm/hr 0.00 in0.0 mm
04:00 AM 67.6°F19.8°C 62.3°F16.8°C 83% Calm Calm -- 29.80 in1009.1 mb 0.00 in0.0 mm 0.00 in/hr0.0 mm/hr 0.00 in0.0 mm
04:10 AM 67.4°F19.7°C 62.1°F16.7°C 83% Calm Calm -- 29.80 in1009.1 mb 0.00 in0.0 mm 0.00 in/hr0.0 mm/hr 0.00 in0.0 mm
04:20 AM 67.1°F19.5°C 62.1°F16.7°C 84% Calm Calm -- 29.80 in1009.1 mb 0.00 in0.0 mm 0.00 in/hr0.0 mm/hr 0.00 in0.0 mm
04:30 AM 66.8°F19.3°C 61.8°F16.6°C 84% Calm Calm -- 29.80 in1009.1 mb 0.00 in0.0 mm 0.00 in/hr0.0 mm/hr 0.00 in0.0 mm
04:40 AM 66.6°F19.2°C 61.9°F16.6°C 85% Calm Calm -- 29.80 in1009.1 mb 0.00 in0.0 mm 0.00 in/hr0.0 mm/hr 0.00 in0.0 mm
04:50 AM 66.5°F19.2°C 62.2°F16.8°C 86% Calm Calm -- 29.80 in1009.1 mb 0.00 in0.0 mm 0.00 in/hr0.0 mm/hr 0.00 in0.0 mm
05:00 AM 66.3°F19.1°C 62.0°F16.7°C 86% Calm Calm -- 29.80 in1009.1 mb 0.00 in0.0 mm 0.00 in/hr0.0 mm/hr 0.00 in0.0 mm
05:10 AM 66.1°F18.9°C 62.1°F16.7°C 87% Calm Calm -- 29.80 in1009.1 mb 0.00 in0.0 mm 0.00 in/hr0.0 mm/hr 0.00 in0.0 mm
05:20 AM 66.0°F18.9°C 62.0°F16.7°C 87% Calm Calm -- 29.80 in1009.1 mb 0.00 in0.0 mm 0.00 in/hr0.0 mm/hr 0.00 in0.0 mm
05:30 AM 65.6°F18.7°C 61.9°F16.6°C 88% Calm Calm -- 29.80 in1009.1 mb 0.00 in0.0 mm 0.00 in/hr0.0 mm/hr 0.00 in0.0 mm
05:40 AM 65.5°F18.6°C 61.9°F16.6°C 88% Calm Calm -- 29.80 in1009.1 mb 0.00 in0.0 mm 0.00 in/hr0.0 mm/hr 0.00 in0.0 mm
05:50 AM 65.6°F18.7°C 62.3°F16.8°C 89% Calm Calm -- 29.81 in1009.5 mb 0.00 in0.0 mm 0.00 in/hr0.0 mm/hr 0.00 in0.0 mm
06:00 AM 65.5°F18.6°C 62.2°F16.8°C 89% Calm Calm -- 29.81 in1009.5 mb 0.00 in0.0 mm 0.00 in/hr0.0 mm/hr 0.00 in0.0 mm
06:10 AM 65.5°F18.6°C 62.5°F16.9°C 90% Calm Calm -- 29.81 in1009.5 mb 0.00 in0.0 mm 0.00 in/hr0.0 mm/hr 0.00 in0.0 mm
06:20 AM 65.8°F18.8°C 62.8°F17.1°C 90% Calm Calm 1.0 mph1.6 kmh 29.82 in1009.8 mb 0.00 in0.0 mm 0.00 in/hr0.0 mm/hr 0.00 in0.0 mm
06:30 AM 66.0°F18.9°C 63.0°F17.2°C 90% Calm Calm -- 29.82 in1009.8 mb 0.00 in0.0 mm 0.00 in/hr0.0 mm/hr 0.00 in0.0 mm
06:40 AM 66.1°F18.9°C 63.1°F17.3°C 90% Calm Calm -- 29.82 in1009.8 mb 0.00 in0.0 mm 0.00 in/hr0.0 mm/hr 0.00 in0.0 mm
06:50 AM 66.3°F19.1°C 63.0°F17.2°C 89% Calm Calm -- 29.82 in1009.8 mb 0.00 in0.0 mm 0.00 in/hr0.0 mm/hr 0.00 in0.0 mm
07:00 AM 66.1°F18.9°C 62.8°F17.1°C 89% Calm Calm -- 29.83 in1010.2 mb 0.00 in0.0 mm 0.00 in/hr0.0 mm/hr 0.00 in0.0 mm
07:10 AM 66.0°F18.9°C 62.3°F16.8°C 88% Calm Calm -- 29.83 in1010.2 mb 0.00 in0.0 mm 0.00 in/hr0.0 mm/hr 0.00 in0.0 mm
07:20 AM 66.1°F18.9°C 62.4°F16.9°C 88% Calm Calm 1.0 mph1.6 kmh 29.83 in1010.2 mb 0.00 in0.0 mm 0.00 in/hr0.0 mm/hr 0.00 in0.0 mm
07:30 AM 66.3°F19.1°C 62.3°F16.8°C 87% Calm Calm -- 29.83 in1010.2 mb 0.00 in0.0 mm 0.00 in/hr0.0 mm/hr 0.00 in0.0 mm
07:40 AM 66.4°F19.1°C 62.4°F16.9°C 87% 0.1 mph NE0.2 kmh NE -- 29.83 in1010.2 mb 0.00 in0.0 mm 0.00 in/hr0.0 mm/hr 0.00 in0.0 mm
07:50 AM 66.6°F19.2°C 62.3°F16.8°C 86% Calm Calm -- 29.84 in1010.5 mb 0.00 in0.0 mm 0.00 in/hr0.0 mm/hr 0.00 in0.0 mm
08:00 AM 67.1°F19.5°C 62.8°F17.1°C 86% Calm Calm 1.0 mph1.6 kmh 29.84 in1010.5 mb 0.00 in0.0 mm 0.00 in/hr0.0 mm/hr 0.00 in0.0 mm
08:10 AM 67.3°F19.6°C 63.0°F17.2°C 86% Calm Calm -- 29.85 in1010.8 mb 0.00 in0.0 mm 0.00 in/hr0.0 mm/hr 0.00 in0.0 mm
08:20 AM 67.6°F19.8°C 63.3°F17.4°C 86% 0.2 mph NE0.3 kmh NE 2.0 mph3.2 kmh 29.85 in1010.8 mb 0.00 in0.0 mm 0.00 in/hr0.0 mm/hr 0.00 in0.0 mm
08:30 AM 67.4°F19.7°C 63.4°F17.4°C 87% Calm Calm -- 29.86 in1011.2 mb 0.05 in1.3 mm 0.30 in/hr7.6 mm/hr 0.05 in1.3 mm
08:40 AM 67.6°F19.8°C 64.2°F17.9°C 89% Calm Calm -- 29.86 in1011.2 mb 0.03 in0.8 mm 0.18 in/hr4.6 mm/hr 0.07 in1.8 mm
08:50 AM 67.8°F19.9°C 64.8°F18.2°C 90% Calm Calm -- 29.86 in1011.2 mb 0.01 in0.3 mm 0.06 in/hr1.5 mm/hr 0.08 in2.0 mm
09:00 AM 68.3°F20.2°C 65.3°F18.5°C 90% Calm Calm 1.0 mph1.6 kmh 29.86 in1011.2 mb 0.02 in0.5 mm 0.02 in/hr0.5 mm/hr 0.10 in2.5 mm
09:10 AM 68.6°F20.3°C 65.8°F18.8°C 91% Calm Calm -- 29.87 in1011.5 mb 0.01 in0.3 mm 0.06 in/hr1.5 mm/hr 0.10 in2.5 mm
09:20 AM 69.0°F20.6°C 66.6°F19.2°C 92% Calm Calm -- 29.87 in1011.5 mb 0.00 in0.0 mm 0.00 in/hr0.0 mm/hr 0.10 in2.5 mm
09:30 AM 69.6°F20.9°C 67.2°F19.6°C 92% 0.4 mph SSW0.6 kmh SSW 1.0 mph1.6 kmh 29.87 in1011.5 mb 0.00 in0.0 mm 0.00 in/hr0.0 mm/hr 0.10 in2.5 mm
09:40 AM 70.9°F21.6°C 68.5°F20.3°C 92% 0.1 mph NNE0.2 kmh NNE -- 29.87 in1011.5 mb 0.00 in0.0 mm 0.00 in/hr0.0 mm/hr 0.10 in2.5 mm
09:50 AM 71.3°F21.8°C 68.5°F20.3°C 91% Calm Calm -- 29.88 in1011.9 mb 0.00 in0.0 mm 0.00 in/hr0.0 mm/hr 0.10 in2.5 mm
10:00 AM 72.4°F22.4°C 69.6°F20.9°C 91% 0.4 mph NE0.6 kmh NE 1.0 mph1.6 kmh 29.88 in1011.9 mb 0.00 in0.0 mm 0.00 in/hr0.0 mm/hr 0.10 in2.5 mm
10:10 AM 73.5°F23.1°C 70.4°F21.3°C 90% 0.1 mph SE0.2 kmh SE 3.0 mph4.8 kmh 29.88 in1011.9 mb 0.00 in0.0 mm 0.00 in/hr0.0 mm/hr 0.10 in2.5 mm
10:50 AM 74.4°F23.6°C 70.3°F21.3°C 87% 0.1 mph E0.2 kmh E -- 29.87 in1011.5 mb 0.00 in0.0 mm 0.00 in/hr0.0 mm/hr 0.10 in2.5 mm
11:00 AM 72.0°F22.2°C 67.6°F19.8°C 86% Calm Calm -- 29.87 in1011.5 mb 0.04 in1.0 mm 0.05 in/hr1.3 mm/hr 0.14 in3.6 mm
11:10 AM 71.9°F22.2°C 68.2°F20.1°C 88% Calm Calm 1.0 mph1.6 kmh 29.87 in1011.5 mb 0.01 in0.3 mm 0.06 in/hr1.5 mm/hr 0.15 in3.8 mm
11:20 AM 71.8°F22.1°C 68.4°F20.2°C 89% 0.7 mph SE1.1 kmh SE 2.0 mph3.2 kmh 29.86 in1011.2 mb 0.00 in0.0 mm 0.00 in/hr0.0 mm/hr 0.15 in3.8 mm
11:30 AM 71.8°F22.1°C 68.4°F20.2°C 89% 0.4 mph SSE0.6 kmh SSE 2.0 mph3.2 kmh 29.86 in1011.2 mb 0.00 in0.0 mm 0.00 in/hr0.0 mm/hr 0.15 in3.8 mm
11:40 AM 71.6°F22.0°C 68.5°F20.3°C 90% 1.7 mph SE2.7 kmh SE 4.0 mph6.4 kmh 29.86 in1011.2 mb 0.03 in0.8 mm 0.18 in/hr4.6 mm/hr 0.18 in4.6 mm
11:50 AM 71.6°F22.0°C 68.6°F20.3°C 90% 0.4 mph SE0.6 kmh SE 3.0 mph4.8 kmh 29.85 in1010.8 mb 0.00 in0.0 mm 0.00 in/hr0.0 mm/hr 0.18 in4.6 mm
12:00 PM 73.1°F22.8°C 70.0°F21.1°C 90% 1.7 mph S2.7 kmh S 4.0 mph6.4 kmh 29.85 in1010.8 mb 0.00 in0.0 mm 0.00 in/hr0.0 mm/hr 0.18 in4.6 mm
12:10 PM 73.7°F23.2°C 68.9°F20.5°C 85% 1.0 mph SSW1.6 kmh SSW 5.0 mph8.0 kmh 29.85 in1010.8 mb 0.00 in0.0 mm 0.00 in/hr0.0 mm/hr 0.18 in4.6 mm
12:20 PM 74.6°F23.7°C 68.8°F20.4°C 82% 2.8 mph W4.5 kmh W 5.0 mph8.0 kmh 29.84 in1010.5 mb 0.00 in0.0 mm 0.00 in/hr0.0 mm/hr 0.18 in4.6 mm
12:30 PM 75.1°F23.9°C 69.2°F20.7°C 82% 1.8 mph SSE2.9 kmh SSE 4.0 mph6.4 kmh 29.84 in1010.5 mb 0.00 in0.0 mm 0.00 in/hr0.0 mm/hr 0.18 in4.6 mm
12:40 PM 75.0°F23.9°C 69.1°F20.6°C 82% 1.1 mph S1.8 kmh S 1.0 mph1.6 kmh 29.83 in1010.2 mb 0.00 in0.0 mm 0.00 in/hr0.0 mm/hr 0.18 in4.6 mm
12:50 PM 75.9°F24.4°C 69.3°F20.7°C 80% 3.1 mph S5.0 kmh S 6.0 mph9.7 kmh 29.83 in1010.2 mb 0.00 in0.0 mm 0.00 in/hr0.0 mm/hr 0.18 in4.6 mm
01:00 PM 76.2°F24.6°C 68.5°F20.3°C 77% 2.3 mph SW3.7 kmh SW 3.0 mph4.8 kmh 29.83 in1010.2 mb 0.00 in0.0 mm 0.00 in/hr0.0 mm/hr 0.18 in4.6 mm
01:10 PM 76.8°F24.9°C 68.3°F20.2°C 75% 2.6 mph SW4.2 kmh SW 5.0 mph8.0 kmh 29.82 in1009.8 mb 0.00 in0.0 mm 0.00 in/hr0.0 mm/hr 0.18 in4.6 mm
01:20 PM 74.9°F23.8°C 67.6°F19.8°C 78% 5.9 mph WSW9.5 kmh WSW 7.0 mph11.3 kmh 29.82 in1009.8 mb 0.00 in0.0 mm 0.00 in/hr0.0 mm/hr 0.18 in4.6 mm
01:30 PM 72.4°F22.4°C 68.3°F20.2°C 87% 3.8 mph SW6.1 kmh SW 5.0 mph8.0 kmh 29.82 in1009.8 mb 0.02 in0.5 mm 0.12 in/hr3.0 mm/hr 0.20 in5.1 mm
01:40 PM 71.8°F22.1°C 68.0°F20.0°C 88% 1.0 mph S1.6 kmh S 2.0 mph3.2 kmh 29.82 in1009.8 mb 0.01 in0.3 mm 0.06 in/hr1.5 mm/hr 0.21 in5.3 mm
01:50 PM 73.5°F23.1°C 69.4°F20.8°C 87% 2.8 mph SSW4.5 kmh SSW 7.0 mph11.3 kmh 29.81 in1009.5 mb 0.00 in0.0 mm 0.00 in/hr0.0 mm/hr 0.21 in5.3 mm
02:00 PM 75.6°F24.2°C 70.8°F21.6°C 85% 4.2 mph SW6.8 kmh SW 8.0 mph12.9 kmh 29.80 in1009.1 mb 0.00 in0.0 mm 0.00 in/hr0.0 mm/hr 0.21 in5.3 mm
02:10 PM 75.3°F24.1°C 69.1°F20.6°C 81% 4.7 mph WSW7.6 kmh WSW 10.0 mph16.1 kmh 29.80 in1009.1 mb 0.00 in0.0 mm 0.00 in/hr0.0 mm/hr 0.21 in5.3 mm
02:20 PM 76.3°F24.6°C 69.3°F20.7°C 79% 4.7 mph SW7.6 kmh SW 7.0 mph11.3 kmh 29.80 in1009.1 mb 0.00 in0.0 mm 0.00 in/hr0.0 mm/hr 0.21 in5.3 mm
02:30 PM 76.5°F24.7°C 68.0°F20.0°C 75% 5.0 mph SW8.0 kmh SW 6.0 mph9.7 kmh 29.80 in1009.1 mb 0.00 in0.0 mm 0.00 in/hr0.0 mm/hr 0.21 in5.3 mm
02:40 PM 76.3°F24.6°C 68.2°F20.1°C 76% 5.3 mph WSW8.5 kmh WSW 7.0 mph11.3 kmh 29.80 in1009.1 mb 0.00 in0.0 mm 0.00 in/hr0.0 mm/hr 0.21 in5.3 mm
02:50 PM 76.5°F24.7°C 68.4°F20.2°C 76% 3.8 mph W6.1 kmh W 7.0 mph11.3 kmh 29.79 in1008.8 mb 0.00 in0.0 mm 0.00 in/hr0.0 mm/hr 0.21 in5.3 mm
03:00 PM 76.8°F24.9°C 68.7°F20.4°C 76% 3.4 mph SW5.5 kmh SW 6.0 mph9.7 kmh 29.79 in1008.8 mb 0.00 in0.0 mm 0.00 in/hr0.0 mm/hr 0.21 in5.3 mm
03:10 PM 76.3°F24.6°C 68.6°F20.3°C 77% 4.2 mph SW6.8 kmh SW 7.0 mph11.3 kmh 29.79 in1008.8 mb 0.00 in0.0 mm 0.00 in/hr0.0 mm/hr 0.21 in5.3 mm
03:20 PM 76.5°F24.7°C 66.8°F19.3°C 72% 6.0 mph W9.7 kmh W 10.0 mph16.1 kmh 29.79 in1008.8 mb 0.00 in0.0 mm 0.00 in/hr0.0 mm/hr 0.21 in5.3 mm
03:30 PM 77.1°F25.1°C 67.4°F19.7°C 72% 4.9 mph NW7.9 kmh NW 12.0 mph19.3 kmh 29.79 in1008.8 mb 0.00 in0.0 mm 0.00 in/hr0.0 mm/hr 0.21 in5.3 mm
03:40 PM 77.6°F25.3°C 67.4°F19.7°C 71% 6.7 mph SW10.8 kmh SW 9.0 mph14.5 kmh 29.79 in1008.8 mb 0.00 in0.0 mm 0.00 in/hr0.0 mm/hr 0.21 in5.3 mm
03:50 PM 77.4°F25.2°C 67.3°F19.6°C 71% 5.3 mph WSW8.5 kmh WSW 10.0 mph16.1 kmh 29.78 in1008.5 mb 0.00 in0.0 mm 0.00 in/hr0.0 mm/hr 0.21 in5.3 mm
04:00 PM 77.4°F25.2°C 67.3°F19.6°C 71% 3.4 mph W5.5 kmh W 6.0 mph9.7 kmh 29.78 in1008.5 mb 0.00 in0.0 mm 0.00 in/hr0.0 mm/hr 0.21 in5.3 mm
04:10 PM 76.8°F24.9°C 67.1°F19.5°C 72% 3.1 mph WSW5.0 kmh WSW 6.0 mph9.7 kmh 29.78 in1008.5 mb 0.00 in0.0 mm 0.00 in/hr0.0 mm/hr 0.21 in5.3 mm
04:20 PM 75.4°F24.1°C 66.9°F19.4°C 75% 5.7 mph SW9.2 kmh SW 9.0 mph14.5 kmh 29.79 in1008.8 mb 0.00 in0.0 mm 0.00 in/hr0.0 mm/hr 0.21 in5.3 mm
04:30 PM 75.4°F24.1°C 66.9°F19.4°C 75% 4.1 mph SSW6.6 kmh SSW 9.0 mph14.5 kmh 29.79 in1008.8 mb 0.00 in0.0 mm 0.00 in/hr0.0 mm/hr 0.21 in5.3 mm
04:40 PM 75.1°F23.9°C 67.0°F19.4°C 76% 3.5 mph SW5.6 kmh SW 6.0 mph9.7 kmh 29.79 in1008.8 mb 0.00 in0.0 mm 0.00 in/hr0.0 mm/hr 0.21 in5.3 mm
04:50 PM 74.7°F23.7°C 67.4°F19.7°C 78% 4.0 mph SW6.4 kmh SW 6.0 mph9.7 kmh 29.79 in1008.8 mb 0.00 in0.0 mm 0.00 in/hr0.0 mm/hr 0.21 in5.3 mm
05:00 PM 74.2°F23.4°C 67.3°F19.6°C 79% 4.7 mph SSW7.6 kmh SSW 11.0 mph17.7 kmh 29.79 in1008.8 mb 0.00 in0.0 mm 0.00 in/hr0.0 mm/hr 0.21 in5.3 mm
05:10 PM 74.6°F23.7°C 67.3°F19.6°C 78% 3.5 mph W5.6 kmh W 6.0 mph9.7 kmh 29.79 in1008.8 mb 0.00 in0.0 mm 0.00 in/hr0.0 mm/hr 0.21 in5.3 mm
05:20 PM 74.7°F23.7°C 66.6°F19.2°C 76% 5.7 mph WSW9.2 kmh WSW 7.0 mph11.3 kmh 29.79 in1008.8 mb 0.00 in0.0 mm 0.00 in/hr0.0 mm/hr 0.21 in5.3 mm
05:30 PM 74.4°F23.6°C 66.7°F19.3°C 77% 3.8 mph W6.1 kmh W 6.0 mph9.7 kmh 29.80 in1009.1 mb 0.00 in0.0 mm 0.00 in/hr0.0 mm/hr 0.21 in5.3 mm
05:40 PM 73.7°F23.2°C 66.8°F19.3°C 79% 4.8 mph WNW7.7 kmh WNW 10.0 mph16.1 kmh 29.80 in1009.1 mb 0.00 in0.0 mm 0.00 in/hr0.0 mm/hr 0.21 in5.3 mm
05:50 PM 73.0°F22.8°C 67.2°F19.6°C 82% 5.3 mph NW8.5 kmh NW 7.0 mph11.3 kmh 29.80 in1009.1 mb 0.00 in0.0 mm 0.00 in/hr0.0 mm/hr 0.21 in5.3 mm
06:00 PM 72.8°F22.7°C 67.0°F19.4°C 82% 4.4 mph W7.1 kmh W 7.0 mph11.3 kmh 29.80 in1009.1 mb 0.00 in0.0 mm 0.00 in/hr0.0 mm/hr 0.21 in5.3 mm
06:10 PM 72.7°F22.6°C 66.2°F19.0°C 80% 3.0 mph NW4.8 kmh NW 4.0 mph6.4 kmh 29.80 in1009.1 mb 0.00 in0.0 mm 0.00 in/hr0.0 mm/hr 0.21 in5.3 mm
06:20 PM 73.0°F22.8°C 66.5°F19.2°C 80% 2.9 mph NW4.7 kmh NW 4.0 mph6.4 kmh 29.80 in1009.1 mb 0.00 in0.0 mm 0.00 in/hr0.0 mm/hr 0.21 in5.3 mm
06:30 PM 72.7°F22.6°C 66.2°F19.0°C 80% 2.1 mph S3.4 kmh S 4.0 mph6.4 kmh 29.80 in1009.1 mb 0.00 in0.0 mm 0.00 in/hr0.0 mm/hr 0.21 in5.3 mm
06:40 PM 72.8°F22.7°C 66.3°F19.1°C 80% 2.3 mph NW3.7 kmh NW 4.0 mph6.4 kmh 29.80 in1009.1 mb 0.00 in0.0 mm 0.00 in/hr0.0 mm/hr 0.21 in5.3 mm
06:50 PM 72.8°F22.7°C 66.6°F19.2°C 81% 2.5 mph W4.0 kmh W 5.0 mph8.0 kmh 29.80 in1009.1 mb 0.00 in0.0 mm 0.00 in/hr0.0 mm/hr 0.21 in5.3 mm
07:00 PM 72.7°F22.6°C 67.3°F19.6°C 83% 1.0 mph NW1.6 kmh NW 3.0 mph4.8 kmh 29.81 in1009.5 mb 0.00 in0.0 mm 0.00 in/hr0.0 mm/hr 0.21 in5.3 mm
07:10 PM 72.5°F22.5°C 67.1°F19.5°C 83% 1.8 mph SW2.9 kmh SW 3.0 mph4.8 kmh 29.81 in1009.5 mb 0.00 in0.0 mm 0.00 in/hr0.0 mm/hr 0.21 in5.3 mm
07:20 PM 72.5°F22.5°C 67.0°F19.4°C 83% 0.1 mph W0.2 kmh W 1.0 mph1.6 kmh 29.81 in1009.5 mb 0.00 in0.0 mm 0.00 in/hr0.0 mm/hr 0.21 in5.3 mm
07:30 PM 72.3°F22.4°C 67.2°F19.6°C 84% 0.2 mph WSW0.3 kmh WSW 1.0 mph1.6 kmh 29.82 in1009.8 mb 0.00 in0.0 mm 0.00 in/hr0.0 mm/hr 0.21 in5.3 mm
07:40 PM 72.3°F22.4°C 67.5°F19.7°C 85% Calm Calm -- 29.82 in1009.8 mb 0.00 in0.0 mm 0.00 in/hr0.0 mm/hr 0.21 in5.3 mm
07:50 PM 72.0°F22.2°C 67.6°F19.8°C 86% Calm Calm -- 29.82 in1009.8 mb 0.00 in0.0 mm 0.00 in/hr0.0 mm/hr 0.21 in5.3 mm
08:00 PM 71.8°F22.1°C 67.4°F19.7°C 86% 0.1 mph WSW0.2 kmh WSW 1.0 mph1.6 kmh 29.82 in1009.8 mb 0.00 in0.0 mm 0.00 in/hr0.0 mm/hr 0.21 in5.3 mm
08:10 PM 71.8°F22.1°C 67.0°F19.4°C 85% 0.7 mph WSW1.1 kmh WSW 2.0 mph3.2 kmh 29.83 in1010.2 mb 0.00 in0.0 mm 0.00 in/hr0.0 mm/hr 0.21 in5.3 mm
08:20 PM 72.0°F22.2°C 66.9°F19.4°C 84% 0.7 mph WNW1.1 kmh WNW 1.0 mph1.6 kmh 29.83 in1010.2 mb 0.00 in0.0 mm 0.00 in/hr0.0 mm/hr 0.21 in5.3 mm
08:30 PM 72.0°F22.2°C 66.9°F19.4°C 84% 1.9 mph W3.1 kmh W 5.0 mph8.0 kmh 29.83 in1010.2 mb 0.00 in0.0 mm 0.00 in/hr0.0 mm/hr 0.21 in5.3 mm
08:40 PM 71.6°F22.0°C 66.5°F19.2°C 84% 1.2 mph W1.9 kmh W 2.0 mph3.2 kmh 29.83 in1010.2 mb 0.00 in0.0 mm 0.00 in/hr0.0 mm/hr 0.21 in5.3 mm
08:50 PM 71.5°F21.9°C 66.8°F19.3°C 85% 1.5 mph SW2.4 kmh SW 2.0 mph3.2 kmh 29.83 in1010.2 mb 0.00 in0.0 mm 0.00 in/hr0.0 mm/hr 0.21 in5.3 mm
09:00 PM 70.8°F21.6°C 66.8°F19.3°C 87% 7.0 mph NW11.3 kmh NW 12.0 mph19.3 kmh 29.85 in1010.8 mb 0.03 in0.8 mm 0.04 in/hr1.0 mm/hr 0.24 in6.1 mm
09:10 PM 68.9°F20.5°C 65.9°F18.8°C 90% 4.9 mph NW7.9 kmh NW 7.0 mph11.3 kmh 29.85 in1010.8 mb 0.10 in2.5 mm 0.60 in/hr15.2 mm/hr 0.33 in8.4 mm
09:20 PM 67.5°F19.7°C 64.7°F18.2°C 91% 5.5 mph WSW8.9 kmh WSW 9.0 mph14.5 kmh 29.85 in1010.8 mb 0.05 in1.3 mm 0.30 in/hr7.6 mm/hr 0.37 in9.4 mm
09:30 PM 66.9°F19.4°C 64.5°F18.1°C 92% 1.1 mph WSW1.8 kmh WSW 3.0 mph4.8 kmh 29.85 in1010.8 mb 0.01 in0.3 mm 0.06 in/hr1.5 mm/hr 0.37 in9.4 mm
09:40 PM 67.3°F19.6°C 64.9°F18.3°C 92% 0.8 mph WNW1.3 kmh WNW 1.0 mph1.6 kmh 29.85 in1010.8 mb 0.00 in0.0 mm 0.00 in/hr0.0 mm/hr 0.37 in9.4 mm
09:50 PM 67.6°F19.8°C 65.5°F18.6°C 93% 0.4 mph WNW0.6 kmh WNW 2.0 mph3.2 kmh 29.85 in1010.8 mb 0.00 in0.0 mm 0.00 in/hr0.0 mm/hr 0.37 in9.4 mm
10:00 PM 68.4°F20.2°C 66.3°F19.1°C 93% 0.3 mph WNW0.5 kmh WNW 2.0 mph3.2 kmh 29.85 in1010.8 mb 0.00 in0.0 mm 0.00 in/hr0.0 mm/hr 0.37 in9.4 mm
10:10 PM 68.9°F20.5°C 66.8°F19.3°C 93% 2.1 mph WNW3.4 kmh WNW 3.0 mph4.8 kmh 29.85 in1010.8 mb 0.01 in0.3 mm 0.06 in/hr1.5 mm/hr 0.38 in9.7 mm
10:20 PM 69.1°F20.6°C 67.0°F19.4°C 93% 2.7 mph W4.3 kmh W 5.0 mph8.0 kmh 29.84 in1010.5 mb 0.00 in0.0 mm 0.00 in/hr0.0 mm/hr 0.38 in9.7 mm
10:30 PM 69.4°F20.8°C 67.3°F19.6°C 93% 3.8 mph WNW6.1 kmh WNW 11.0 mph17.7 kmh 29.84 in1010.5 mb 0.00 in0.0 mm 0.00 in/hr0.0 mm/hr 0.38 in9.7 mm
10:40 PM 69.3°F20.7°C 66.9°F19.4°C 92% 3.8 mph NW6.1 kmh NW 5.0 mph8.0 kmh 29.84 in1010.5 mb 0.00 in0.0 mm 0.00 in/hr0.0 mm/hr 0.38 in9.7 mm
10:50 PM 69.3°F20.7°C 66.9°F19.4°C 92% 3.9 mph WSW6.3 kmh WSW 6.0 mph9.7 kmh 29.85 in1010.8 mb 0.00 in0.0 mm 0.00 in/hr0.0 mm/hr 0.38 in9.7 mm
11:00 PM 69.4°F20.8°C 67.0°F19.4°C 92% 4.2 mph NW6.8 kmh NW 6.0 mph9.7 kmh 29.85 in1010.8 mb 0.00 in0.0 mm 0.00 in/hr0.0 mm/hr 0.38 in9.7 mm
11:10 PM 69.6°F20.9°C 67.2°F19.6°C 92% 7.6 mph NNW12.2 kmh NNW 11.0 mph17.7 kmh 29.85 in1010.8 mb 0.00 in0.0 mm 0.00 in/hr0.0 mm/hr 0.38 in9.7 mm
11:20 PM 69.4°F20.8°C 67.0°F19.4°C 92% 2.7 mph NW4.3 kmh NW 6.0 mph9.7 kmh 29.84 in1010.5 mb 0.00 in0.0 mm 0.00 in/hr0.0 mm/hr 0.38 in9.7 mm
11:30 PM 69.3°F20.7°C 66.9°F19.4°C 92% 2.0 mph NW3.2 kmh NW 2.0 mph3.2 kmh 29.84 in1010.5 mb 0.00 in0.0 mm 0.00 in/hr0.0 mm/hr 0.38 in9.7 mm
11:40 PM 69.1°F20.6°C 66.7°F19.3°C 92% 1.2 mph NW1.9 kmh NW 2.0 mph3.2 kmh 29.84 in1010.5 mb 0.00 in0.0 mm 0.00 in/hr0.0 mm/hr 0.38 in9.7 mm
11:50 PM 69.1°F20.6°C 66.7°F19.3°C 92% Calm Calm -- 29.84 in1010.5 mb 0.00 in0.0 mm 0.00 in/hr0.0 mm/hr 0.38 in9.7 mm